Villa Pampanos, Puerto Rico
Current Conditions -  °F | °C
As of 5:50 AM on Thursday 18 Dec 2014 (Local Time) from TJBQ Reporting Station
Broken Clouds Broken Clouds  
Wind Chill: 22°   Ceiling: 3000
Heat Index: 22°   Visibility: 10mi
Dew Point: 19°   Wind: 5mph
Humidity: 83%   Direction: 110°ESE
Pressure: 30.03"   Gusts: NA
Location:  18.0093°N, 66.6209°W
Report Text: TJBQ 180950Z 11004KT 10SM BKN030 22/19 A3003 RMK RWY 8 ATIS P
Loading
Personal Weather Stations






























Interactive Weather Map New forecast layout! Learn more

10-Day Weather Forecast

Advertisements
Track Severe Weather on mobile